createdAt,value
2023-03-30T00:00:47.073Z,18.00
2023-03-30T00:03:50.260Z,17.90
2023-03-30T00:06:52.952Z,17.10
2023-03-30T00:09:56.956Z,19.23
2023-03-30T00:12:59.663Z,20.97
2023-03-30T00:16:02.883Z,18.47
2023-03-30T00:19:05.967Z,19.23
2023-03-30T00:22:11.460Z,18.03
2023-03-30T00:25:17.277Z,19.37
2023-03-30T00:28:19.896Z,18.87
2023-03-30T00:31:22.508Z,19.63
2023-03-30T00:34:25.443Z,19.13
2023-03-30T00:37:28.444Z,21.87
2023-03-30T00:40:34.656Z,16.30
2023-03-30T00:43:56.367Z,17.37
2023-03-30T00:46:59.870Z,18.00
2023-03-30T00:50:03.364Z,17.40
2023-03-30T00:53:11.453Z,20.60
2023-03-30T00:56:18.721Z,19.70
2023-03-30T00:59:21.611Z,19.47
2023-03-30T01:02:24.866Z,16.87
2023-03-30T01:05:28.918Z,18.40
2023-03-30T01:08:33.317Z,17.47
2023-03-30T01:11:37.307Z,17.83
2023-03-30T01:14:40.078Z,19.37
2023-03-30T01:17:59.648Z,17.57
2023-03-30T01:21:48.377Z,19.13
2023-03-30T01:25:18.286Z,17.97
2023-03-30T01:28:31.515Z,19.13
2023-03-30T01:31:52.875Z,21.27
2023-03-30T01:35:43.283Z,19.63
2023-03-30T01:39:17.627Z,18.97
2023-03-30T01:42:24.148Z,19.27
2023-03-30T01:45:36.575Z,16.00
2023-03-30T01:48:45.362Z,19.47
2023-03-30T01:51:57.043Z,19.20
2023-03-30T01:55:06.297Z,20.77
2023-03-30T01:58:15.217Z,16.13
2023-03-30T02:01:20.538Z,19.63
2023-03-30T02:04:25.531Z,17.83
2023-03-30T02:07:32.385Z,23.60
2023-03-30T02:10:38.555Z,18.43
2023-03-30T02:13:43.013Z,20.10
2023-03-30T02:16:48.172Z,20.57
2023-03-30T02:19:51.886Z,21.77
2023-03-30T02:22:54.805Z,20.17
2023-03-30T02:25:59.392Z,18.37
2023-03-30T02:29:02.179Z,19.83
2023-03-30T02:32:05.135Z,21.70
2023-03-30T02:35:29.084Z,19.57
2023-03-30T02:38:57.404Z,20.73
2023-03-30T02:42:31.187Z,20.73
2023-03-30T02:45:46.895Z,20.80
2023-03-30T02:49:02.928Z,22.03
2023-03-30T02:52:16.461Z,19.63
2023-03-30T02:55:22.563Z,22.23
2023-03-30T02:58:34.655Z,23.20
2023-03-30T03:01:43.683Z,22.33
2023-03-30T03:04:47.918Z,19.20
2023-03-30T03:07:50.791Z,21.77
2023-03-30T03:10:53.377Z,21.10
2023-03-30T03:13:57.677Z,18.67
2023-03-30T03:17:00.600Z,20.30
2023-03-30T03:20:04.181Z,21.60
2023-03-30T03:23:07.439Z,22.93
2023-03-30T03:26:11.545Z,20.27
2023-03-30T03:29:15.728Z,21.10
2023-03-30T03:32:18.352Z,20.80
2023-03-30T03:35:21.682Z,21.07
2023-03-30T03:38:24.591Z,20.50
2023-03-30T03:41:27.320Z,18.17
2023-03-30T03:44:31.275Z,20.03
2023-03-30T03:47:34.465Z,20.00
2023-03-30T03:50:37.116Z,18.73
2023-03-30T03:53:39.776Z,23.57
2023-03-30T03:56:42.404Z,19.77
2023-03-30T03:59:46.402Z,23.47
2023-03-30T04:02:48.993Z,22.17
2023-03-30T04:05:51.571Z,16.60
2023-03-30T04:08:54.141Z,19.90
2023-03-30T04:11:56.814Z,21.47
2023-03-30T04:15:01.032Z,17.50
2023-03-30T04:18:05.445Z,18.63
2023-03-30T04:21:13.017Z,20.57
2023-03-30T04:24:15.786Z,37.30
2023-03-30T04:27:18.374Z,24.87
2023-03-30T04:30:23.366Z,21.40
2023-03-30T04:33:26.008Z,17.03
2023-03-30T04:36:28.974Z,18.20
2023-03-30T04:39:31.550Z,16.63
2023-03-30T04:42:37.546Z,18.97
2023-03-30T04:45:42.152Z,16.30
2023-03-30T04:48:44.767Z,18.93
2023-03-30T04:51:47.339Z,18.23
2023-03-30T04:54:50.299Z,19.27
2023-03-30T04:57:52.886Z,17.83
2023-03-30T05:00:58.105Z,25.93
2023-03-30T05:04:00.992Z,16.50
2023-03-30T05:07:04.234Z,20.40
2023-03-30T05:10:07.838Z,18.57
2023-03-30T05:13:10.432Z,17.57
2023-03-30T05:16:14.421Z,18.13
2023-03-30T05:19:17.101Z,16.73
2023-03-30T05:22:19.799Z,18.00
2023-03-30T05:25:22.415Z,16.17
2023-03-30T05:28:25.042Z,18.00
2023-03-30T05:31:29.044Z,17.60
2023-03-30T05:34:31.683Z,15.53
2023-03-30T05:37:34.356Z,16.00
2023-03-30T05:40:37.952Z,15.13
2023-03-30T05:43:40.895Z,17.33
2023-03-30T05:46:44.979Z,14.77
2023-03-30T05:49:47.627Z,18.17
2023-03-30T05:52:50.736Z,18.37
2023-03-30T05:55:53.326Z,15.63
2023-03-30T05:58:55.944Z,17.40
2023-03-30T06:02:00.620Z,16.50
2023-03-30T06:05:04.087Z,17.33
2023-03-30T06:08:07.958Z,15.80
2023-03-30T06:11:11.293Z,19.77
2023-03-30T06:14:14.066Z,14.00
2023-03-30T06:17:18.680Z,15.70
2023-03-30T06:20:24.516Z,13.83
2023-03-30T06:23:27.115Z,12.83
2023-03-30T06:26:29.747Z,15.47
2023-03-30T06:29:32.728Z,12.97
2023-03-30T06:32:37.678Z,16.67
2023-03-30T06:35:40.350Z,19.13
2023-03-30T06:38:43.557Z,17.50
2023-03-30T06:41:46.293Z,16.17
2023-03-30T06:44:49.917Z,19.33
2023-03-30T06:47:54.125Z,15.53
2023-03-30T06:50:57.132Z,16.13
2023-03-30T06:53:59.813Z,16.37
2023-03-30T06:57:02.781Z,15.93
2023-03-30T07:00:10.208Z,14.63
2023-03-30T07:03:14.179Z,14.60
2023-03-30T07:06:18.661Z,14.03
2023-03-30T07:09:22.737Z,15.37
2023-03-30T07:12:25.452Z,15.20
2023-03-30T07:15:28.047Z,13.73
2023-03-30T07:18:32.338Z,14.20
2023-03-30T07:21:35.012Z,13.77
2023-03-30T07:24:37.703Z,11.50
2023-03-30T07:27:40.970Z,11.90
2023-03-30T07:30:43.881Z,11.03
2023-03-30T07:33:47.935Z,12.60
2023-03-30T07:36:50.557Z,14.77
2023-03-30T07:39:53.174Z,13.20
2023-03-30T07:42:55.795Z,11.40
2023-03-30T07:45:58.490Z,10.20
2023-03-30T07:49:02.423Z,10.67
2023-03-30T07:52:05.084Z,11.73
2023-03-30T07:55:08.989Z,14.00
2023-03-30T07:58:11.575Z,10.80
2023-03-30T08:01:14.223Z,13.37
2023-03-30T08:04:18.648Z,13.50
2023-03-30T08:07:21.332Z,11.13
2023-03-30T08:10:24.009Z,12.47
2023-03-30T08:13:27.176Z,12.63
2023-03-30T08:16:30.014Z,10.83
2023-03-30T08:19:34.057Z,11.50
2023-03-30T08:22:36.611Z,13.87
2023-03-30T08:25:39.453Z,10.00
2023-03-30T08:28:42.042Z,6.83
2023-03-30T08:31:45.512Z,10.90
2023-03-30T08:34:49.639Z,11.23
2023-03-30T08:37:52.526Z,10.87
2023-03-30T08:40:55.500Z,12.27
2023-03-30T08:43:59.718Z,12.07
2023-03-30T08:47:04.754Z,13.30
2023-03-30T08:50:14.817Z,13.57
2023-03-30T08:53:17.497Z,7.13
2023-03-30T08:56:24.842Z,8.40
2023-03-30T08:59:38.576Z,9.13
2023-03-30T09:02:44.624Z,10.87
2023-03-30T09:05:56.088Z,7.90
2023-03-30T09:08:59.125Z,7.03
2023-03-30T09:12:06.626Z,7.47
2023-03-30T09:15:15.036Z,8.77
2023-03-30T09:18:22.374Z,12.97
2023-03-30T09:21:29.886Z,9.00
2023-03-30T09:24:33.351Z,9.50
2023-03-30T09:27:43.255Z,11.50
2023-03-30T09:30:49.692Z,8.50
2023-03-30T09:34:00.962Z,7.83
2023-03-30T09:37:06.950Z,6.93
2023-03-30T09:40:23.987Z,8.17
2023-03-30T09:43:33.918Z,8.87
2023-03-30T09:46:38.095Z,9.10
2023-03-30T09:49:40.940Z,10.27
2023-03-30T09:52:57.503Z,7.87
2023-03-30T09:56:02.094Z,12.07
2023-03-30T09:59:21.807Z,10.60
2023-03-30T10:02:27.589Z,6.23
2023-03-30T10:05:32.396Z,6.13
2023-03-30T10:08:42.777Z,7.53
2023-03-30T10:11:47.043Z,12.33
2023-03-30T10:14:55.119Z,8.43
2023-03-30T10:18:03.548Z,9.97
2023-03-30T10:21:07.972Z,11.40
2023-03-30T10:24:23.088Z,8.97
2023-03-30T10:27:29.060Z,10.80
2023-03-30T10:30:32.888Z,9.23
2023-03-30T10:33:41.639Z,9.63
2023-03-30T10:36:49.679Z,7.67
2023-03-30T10:39:56.136Z,11.17
2023-03-30T10:42:59.316Z,12.50
2023-03-30T10:46:19.241Z,8.53
2023-03-30T10:49:38.396Z,9.10
2023-03-30T10:52:59.155Z,8.53
2023-03-30T10:56:13.440Z,8.50
2023-03-30T10:59:27.854Z,11.13
2023-03-30T11:02:46.057Z,9.43
2023-03-30T11:05:52.642Z,7.53
2023-03-30T11:08:57.734Z,4.97
2023-03-30T11:12:06.092Z,3.60
2023-03-30T11:15:14.203Z,8.63
2023-03-30T11:18:21.894Z,9.23
2023-03-30T11:21:31.855Z,9.43
2023-03-30T11:24:36.372Z,8.60
2023-03-30T11:27:55.639Z,7.60
2023-03-30T11:31:08.592Z,4.97
2023-03-30T11:34:21.459Z,6.10
2023-03-30T11:37:29.751Z,5.13
2023-03-30T11:40:41.668Z,6.30
2023-03-30T11:43:45.844Z,7.30
2023-03-30T11:47:00.319Z,6.73
2023-03-30T11:50:14.789Z,6.43
2023-03-30T11:53:29.201Z,6.00
2023-03-30T11:56:40.894Z,4.73
2023-03-30T11:59:54.240Z,9.03
2023-03-30T12:03:09.124Z,14.10
2023-03-30T12:06:26.992Z,11.03
2023-03-30T12:09:35.278Z,5.63
2023-03-30T12:12:40.102Z,5.83
2023-03-30T12:15:51.991Z,8.13
2023-03-30T12:19:06.508Z,7.33
2023-03-30T12:22:16.890Z,5.93
2023-03-30T12:25:29.770Z,7.07
2023-03-30T12:32:06.985Z,7.17
2023-03-30T12:35:43.277Z,13.10
2023-03-30T12:38:48.246Z,4.40
2023-03-30T12:41:51.907Z,3.40
2023-03-30T12:45:12.399Z,8.10
2023-03-30T12:48:29.939Z,3.73
2023-03-30T12:51:52.209Z,4.63
2023-03-30T12:55:06.116Z,5.10
2023-03-30T12:58:21.004Z,7.40
2023-03-30T13:01:38.240Z,12.20
2023-03-30T13:04:46.468Z,10.60
2023-03-30T13:07:51.109Z,9.57
2023-03-30T13:11:08.289Z,9.63
2023-03-30T13:14:26.531Z,9.73
2023-03-30T13:17:29.527Z,9.37
2023-03-30T13:20:35.425Z,10.00
2023-03-30T13:23:39.899Z,15.43
2023-03-30T13:26:44.900Z,14.13
2023-03-30T13:29:52.787Z,10.67
2023-03-30T13:33:11.637Z,10.27
2023-03-30T13:36:22.279Z,12.87
2023-03-30T13:39:32.313Z,13.43
2023-03-30T13:42:45.869Z,7.70
2023-03-30T13:46:05.548Z,11.20
2023-03-30T13:49:29.347Z,10.00
2023-03-30T13:52:38.306Z,8.53
2023-03-30T13:55:45.200Z,16.23
2023-03-30T13:58:55.746Z,11.50
2023-03-30T14:02:01.048Z,14.07
2023-03-30T14:05:16.248Z,11.10
2023-03-30T14:08:20.214Z,11.07
2023-03-30T14:11:26.352Z,16.03
2023-03-30T14:14:35.872Z,9.87
2023-03-30T14:17:38.586Z,14.37
2023-03-30T14:20:48.200Z,10.17
2023-03-30T14:23:54.421Z,12.77
2023-03-30T14:27:03.424Z,14.23
2023-03-30T14:30:19.171Z,7.83
2023-03-30T14:33:22.184Z,9.37
2023-03-30T14:36:25.385Z,11.00
2023-03-30T14:39:31.706Z,10.20
2023-03-30T14:42:34.730Z,8.03
2023-03-30T14:45:37.880Z,12.30
2023-03-30T14:48:42.915Z,10.37
2023-03-30T14:51:48.532Z,9.17
2023-03-30T14:55:06.044Z,10.03
2023-03-30T14:58:15.721Z,8.10
2023-03-30T15:01:23.995Z,11.00
2023-03-30T15:04:31.821Z,6.83
2023-03-30T15:07:35.016Z,10.23
2023-03-30T15:10:46.032Z,10.63
2023-03-30T15:13:52.482Z,11.40
2023-03-30T15:16:57.535Z,10.57
2023-03-30T15:20:01.902Z,10.33
2023-03-30T15:23:04.821Z,10.93
2023-03-30T15:26:09.549Z,9.50
2023-03-30T15:29:13.034Z,5.27
2023-03-30T15:32:17.519Z,7.73
2023-03-30T15:35:24.549Z,10.27
2023-03-30T15:38:34.063Z,13.53
2023-03-30T15:41:48.550Z,7.47
2023-03-30T15:45:02.435Z,9.33
2023-03-30T15:48:05.606Z,10.40
2023-03-30T15:51:12.326Z,9.93
2023-03-30T15:54:17.106Z,11.97
2023-03-30T15:57:24.929Z,7.67
2023-03-30T16:00:30.706Z,10.77
2023-03-30T16:03:40.456Z,14.70
2023-03-30T16:06:45.202Z,10.53
2023-03-30T16:09:49.851Z,11.73
2023-03-30T16:12:55.681Z,6.70
2023-03-30T16:15:58.434Z,10.10
2023-03-30T16:19:01.263Z,11.03
2023-03-30T16:22:03.879Z,10.37
2023-03-30T16:25:07.630Z,10.90
2023-03-30T16:28:17.501Z,7.33
2023-03-30T16:31:22.755Z,6.70
2023-03-30T16:34:25.911Z,5.60
2023-03-30T16:37:29.344Z,7.53
2023-03-30T16:40:34.497Z,7.67
2023-03-30T16:43:38.453Z,9.97
2023-03-30T16:46:42.642Z,9.37
2023-03-30T16:49:45.271Z,6.20
2023-03-30T16:52:47.891Z,11.33
2023-03-30T16:55:50.893Z,8.00
2023-03-30T16:58:54.848Z,10.63
2023-03-30T17:01:57.685Z,10.13
2023-03-30T17:05:00.639Z,12.27
2023-03-30T17:08:07.949Z,11.87
2023-03-30T17:11:13.345Z,11.70
2023-03-30T17:14:18.090Z,13.37
2023-03-30T17:17:21.480Z,11.73
2023-03-30T17:20:30.028Z,10.00
2023-03-30T17:23:33.646Z,9.60
2023-03-30T17:26:36.370Z,14.60
2023-03-30T17:29:40.609Z,13.33
2023-03-30T17:32:43.200Z,13.90
2023-03-30T17:35:48.871Z,18.27
2023-03-30T17:38:52.073Z,14.30
2023-03-30T17:41:54.728Z,17.63
2023-03-30T17:44:58.709Z,11.53
2023-03-30T17:48:01.746Z,15.00
2023-03-30T17:51:04.667Z,12.07
2023-03-30T17:54:08.227Z,17.87
2023-03-30T17:57:10.839Z,41.47
2023-03-30T18:00:21.685Z,19.03
2023-03-30T18:03:25.624Z,17.90
2023-03-30T18:06:28.297Z,18.83
2023-03-30T18:09:30.924Z,11.90
2023-03-30T18:12:33.568Z,16.23
2023-03-30T18:15:37.704Z,17.13
2023-03-30T18:18:40.545Z,15.50
2023-03-30T18:21:43.203Z,11.70
2023-03-30T18:24:45.784Z,13.27
2023-03-30T18:27:49.675Z,13.13
2023-03-30T18:30:57.204Z,16.07
2023-03-30T18:33:59.829Z,17.63
2023-03-30T18:37:02.466Z,12.53
2023-03-30T18:40:13.466Z,14.47
2023-03-30T18:43:16.458Z,15.30
2023-03-30T18:46:20.492Z,16.73
2023-03-30T18:49:23.728Z,13.30
2023-03-30T18:52:26.313Z,14.57
2023-03-30T18:55:29.421Z,12.03
2023-03-30T18:58:41.358Z,10.00
2023-03-30T19:01:45.790Z,11.50
2023-03-30T19:04:48.565Z,9.67
2023-03-30T19:07:51.624Z,10.57
2023-03-30T19:10:56.750Z,15.20
2023-03-30T19:14:00.345Z,9.80
2023-03-30T19:17:04.346Z,8.53
2023-03-30T19:20:08.282Z,15.77
2023-03-30T19:23:12.755Z,13.60
2023-03-30T19:26:15.351Z,15.20
2023-03-30T19:29:17.941Z,12.60
2023-03-30T19:32:21.921Z,12.47
2023-03-30T19:35:25.207Z,14.43
2023-03-30T19:38:27.828Z,15.70
2023-03-30T19:41:30.478Z,16.07
2023-03-30T19:44:33.052Z,11.27
2023-03-30T19:47:37.283Z,16.20
2023-03-30T19:50:40.644Z,14.50
2023-03-30T19:53:43.305Z,17.80
2023-03-30T19:56:46.007Z,12.90
2023-03-30T19:59:49.230Z,16.57
2023-03-30T20:02:55.200Z,19.90
2023-03-30T20:05:57.847Z,17.70
2023-03-30T20:09:00.645Z,14.17
2023-03-30T20:12:04.305Z,17.87
2023-03-30T20:15:09.397Z,22.33
2023-03-30T20:18:14.135Z,18.47
2023-03-30T20:21:17.078Z,16.03
2023-03-30T20:24:19.656Z,18.47
2023-03-30T20:27:22.310Z,18.73
2023-03-30T20:30:24.913Z,19.03
2023-03-30T20:33:30.570Z,23.73
2023-03-30T20:36:33.421Z,18.60
2023-03-30T20:39:37.135Z,18.37
2023-03-30T20:42:40.529Z,21.90
2023-03-30T20:45:48.357Z,18.30
2023-03-30T20:48:54.815Z,25.30
2023-03-30T20:52:00.718Z,33.57
2023-03-30T20:55:03.322Z,37.03
2023-03-30T20:58:05.955Z,20.47
2023-03-30T21:01:16.904Z,19.53
2023-03-30T21:04:21.037Z,21.43
2023-03-30T21:07:24.645Z,15.73
2023-03-30T21:10:27.268Z,21.03
2023-03-30T21:13:30.169Z,23.70
2023-03-30T21:16:33.273Z,25.70
2023-03-30T21:19:37.545Z,18.73
2023-03-30T21:22:40.114Z,20.97
2023-03-30T21:25:43.098Z,21.90
2023-03-30T21:28:46.021Z,24.53
2023-03-30T21:31:48.630Z,19.73
2023-03-30T21:34:52.535Z,16.67
2023-03-30T21:37:55.510Z,18.73
2023-03-30T21:40:59.738Z,22.73
2023-03-30T21:44:03.292Z,17.53
2023-03-30T21:47:05.929Z,22.47
2023-03-30T21:50:11.057Z,21.17
2023-03-30T21:53:13.647Z,18.47
2023-03-30T21:56:16.540Z,28.27
2023-03-30T21:59:19.771Z,19.60
2023-03-30T22:02:22.795Z,25.20
2023-03-30T22:05:27.031Z,26.07
2023-03-30T22:08:30.364Z,23.17
2023-03-30T22:11:33.003Z,19.63
2023-03-30T22:14:35.832Z,22.97
2023-03-30T22:17:42.306Z,25.27
2023-03-30T22:20:46.273Z,24.77
2023-03-30T22:23:48.908Z,17.67
2023-03-30T22:26:52.531Z,23.23
2023-03-30T22:29:55.345Z,17.30
2023-03-30T22:32:58.087Z,27.60
2023-03-30T22:36:03.021Z,25.10
2023-03-30T22:39:06.373Z,23.97
2023-03-30T22:42:09.338Z,25.20
2023-03-30T22:45:12.259Z,16.10
2023-03-30T22:48:14.832Z,25.63
2023-03-30T22:51:23.393Z,23.27
2023-03-30T22:54:26.128Z,18.47
2023-03-30T22:57:28.787Z,20.50
2023-03-30T23:00:31.725Z,27.50
2023-03-30T23:03:34.453Z,17.57
2023-03-30T23:06:39.088Z,19.40
2023-03-30T23:09:47.135Z,22.53
2023-03-30T23:12:49.727Z,27.83
2023-03-30T23:15:52.323Z,20.57
2023-03-30T23:18:54.903Z,22.60
2023-03-30T23:21:58.835Z,24.73
2023-03-30T23:25:01.413Z,12.67
2023-03-30T23:28:05.287Z,26.13
2023-03-30T23:31:09.218Z,22.07
2023-03-30T23:34:13.426Z,19.53
2023-03-30T23:37:17.921Z,24.37
2023-03-30T23:40:20.554Z,20.93
2023-03-30T23:43:23.159Z,26.83
2023-03-30T23:46:25.903Z,25.13
2023-03-30T23:49:28.663Z,22.40
2023-03-30T23:52:32.650Z,23.83
2023-03-30T23:55:35.237Z,21.50
2023-03-30T23:58:37.804Z,19.73
